<?xml version="1.0" encoding="UTF-8" standalone="no" ?>
<gpx xmlns="http://www.topografix.com/GPX/1/1" xmlns:xsi="http://www.w3.org/2001/XMLSchema-instance" xsi:schemaLocation="http://www.topografix.com/GPX/1/1 http://www.topografix.com/GPX/1/1/gpx.xsd" version="1.1" creator="VisuGPX - https://www.visugpx.com">
  <metadata>
    <name>Trail Bunant-Parmelan</name>
    <desc><![CDATA[Joli coin mais les sentiers ne sont pas entretenus!]]></desc>
  </metadata>
  <trk>
    <name><![CDATA[Trail Bunant-Parmelan_1]]></name>
    <trkseg>
      <trkpt lat="45.99051" lon="6.24974">
        <ele>636.11</ele>
        <time>2011-05-28T12:44:58.223Z</time>
      </trkpt>
      <trkpt lat="45.99038" lon="6.24987">
        <ele>645.81</ele>
        <time>2011-05-28T12:45:10Z</time>
      </trkpt>
      <trkpt lat="45.9901" lon="6.2498">
        <ele>669.23</ele>
        <time>2011-05-28T12:45:25Z</time>
      </trkpt>
      <trkpt lat="45.99006" lon="6.24992">
        <ele>664.73</ele>
        <time>2011-05-28T12:45:31Z</time>
      </trkpt>
      <trkpt lat="45.98945" lon="6.25042">
        <ele>663.17</ele>
        <time>2011-05-28T12:46:31.003Z</time>
      </trkpt>
      <trkpt lat="45.98934" lon="6.25038">
        <ele>671.52</ele>
        <time>2011-05-28T12:46:42.999Z</time>
      </trkpt>
      <trkpt lat="45.98907" lon="6.25073">
        <ele>662.65</ele>
        <time>2011-05-28T12:47:09.999Z</time>
      </trkpt>
      <trkpt lat="45.98897" lon="6.25075">
        <ele>660.76</ele>
        <time>2011-05-28T12:47:19Z</time>
      </trkpt>
      <trkpt lat="45.98878" lon="6.25102">
        <ele>653.5</ele>
        <time>2011-05-28T12:47:43.002Z</time>
      </trkpt>
      <trkpt lat="45.98855" lon="6.25105">
        <ele>675.22</ele>
        <time>2011-05-28T12:47:55Z</time>
      </trkpt>
      <trkpt lat="45.98843" lon="6.25125">
        <ele>684.82</ele>
        <time>2011-05-28T12:48:16Z</time>
      </trkpt>
      <trkpt lat="45.98853" lon="6.2511">
        <ele>698.32</ele>
        <time>2011-05-28T12:48:34Z</time>
      </trkpt>
      <trkpt lat="45.98818" lon="6.25063">
        <ele>697.53</ele>
        <time>2011-05-28T12:49:13Z</time>
      </trkpt>
      <trkpt lat="45.98816" lon="6.25041">
        <ele>705.82</ele>
        <time>2011-05-28T12:49:16Z</time>
      </trkpt>
      <trkpt lat="45.98801" lon="6.25026">
        <ele>720.04</ele>
        <time>2011-05-28T12:49:31.003Z</time>
      </trkpt>
      <trkpt lat="45.98803" lon="6.25018">
        <ele>724.72</ele>
        <time>2011-05-28T12:49:36.999Z</time>
      </trkpt>
      <trkpt lat="45.98773" lon="6.25034">
        <ele>736.49</ele>
        <time>2011-05-28T12:50:10.002Z</time>
      </trkpt>
      <trkpt lat="45.98763" lon="6.25086">
        <ele>727.22</ele>
        <time>2011-05-28T12:50:31.001Z</time>
      </trkpt>
      <trkpt lat="45.98746" lon="6.2513">
        <ele>707.77</ele>
        <time>2011-05-28T12:50:49Z</time>
      </trkpt>
      <trkpt lat="45.98744" lon="6.25156">
        <ele>704.94</ele>
        <time>2011-05-28T12:51:03.998Z</time>
      </trkpt>
      <trkpt lat="45.98743" lon="6.2514">
        <ele>716.18</ele>
        <time>2011-05-28T12:51:31.001Z</time>
      </trkpt>
      <trkpt lat="45.98715" lon="6.25117">
        <ele>714.25</ele>
        <time>2011-05-28T12:52:06.999Z</time>
      </trkpt>
      <trkpt lat="45.98716" lon="6.25102">
        <ele>733.62</ele>
        <time>2011-05-28T12:52:16Z</time>
      </trkpt>
      <trkpt lat="45.98689" lon="6.25079">
        <ele>747.32</ele>
        <time>2011-05-28T12:52:46Z</time>
      </trkpt>
      <trkpt lat="45.98677" lon="6.2504">
        <ele>762.53</ele>
        <time>2011-05-28T12:53:22.002Z</time>
      </trkpt>
      <trkpt lat="45.98647" lon="6.25028">
        <ele>754.22</ele>
        <time>2011-05-28T12:53:46Z</time>
      </trkpt>
      <trkpt lat="45.9862" lon="6.25001">
        <ele>756.49</ele>
        <time>2011-05-28T12:54:21.996Z</time>
      </trkpt>
      <trkpt lat="45.98606" lon="6.24971">
        <ele>765.45</ele>
        <time>2011-05-28T12:54:39.997Z</time>
      </trkpt>
      <trkpt lat="45.9859" lon="6.24967">
        <ele>758.4</ele>
        <time>2011-05-28T12:54:51.997Z</time>
      </trkpt>
      <trkpt lat="45.98592" lon="6.24945">
        <ele>773.74</ele>
        <time>2011-05-28T12:55:06.999Z</time>
      </trkpt>
      <trkpt lat="45.98574" lon="6.2493">
        <ele>772.98</ele>
        <time>2011-05-28T12:55:21.999Z</time>
      </trkpt>
      <trkpt lat="45.98578" lon="6.24908">
        <ele>790.06</ele>
        <time>2011-05-28T12:55:45.998Z</time>
      </trkpt>
      <trkpt lat="45.98557" lon="6.24884">
        <ele>782.21</ele>
        <time>2011-05-28T12:56:07.003Z</time>
      </trkpt>
      <trkpt lat="45.98543" lon="6.24833">
        <ele>789.48</ele>
        <time>2011-05-28T12:56:48.999Z</time>
      </trkpt>
      <trkpt lat="45.98509" lon="6.24778">
        <ele>794.16</ele>
        <time>2011-05-28T12:57:27.997Z</time>
      </trkpt>
      <trkpt lat="45.98512" lon="6.24759">
        <ele>803.9</ele>
        <time>2011-05-28T12:57:45.997Z</time>
      </trkpt>
      <trkpt lat="45.98507" lon="6.24764">
        <ele>803.78</ele>
        <time>2011-05-28T12:57:55Z</time>
      </trkpt>
      <trkpt lat="45.98501" lon="6.24731">
        <ele>812.18</ele>
        <time>2011-05-28T12:58:43Z</time>
      </trkpt>
      <trkpt lat="45.98496" lon="6.24731">
        <ele>805.59</ele>
        <time>2011-05-28T12:58:46.001Z</time>
      </trkpt>
      <trkpt lat="45.98501" lon="6.24725">
        <ele>803.45</ele>
        <time>2011-05-28T12:59:00.999Z</time>
      </trkpt>
      <trkpt lat="45.98487" lon="6.24704">
        <ele>796.97</ele>
        <time>2011-05-28T12:59:13Z</time>
      </trkpt>
      <trkpt lat="45.98494" lon="6.24713">
        <ele>795.62</ele>
        <time>2011-05-28T12:59:22Z</time>
      </trkpt>
      <trkpt lat="45.98476" lon="6.24728">
        <ele>784.16</ele>
        <time>2011-05-28T12:59:31Z</time>
      </trkpt>
      <trkpt lat="45.98481" lon="6.24739">
        <ele>792.2</ele>
        <time>2011-05-28T12:59:40Z</time>
      </trkpt>
      <trkpt lat="45.98494" lon="6.24738">
        <ele>803.51</ele>
        <time>2011-05-28T12:59:49Z</time>
      </trkpt>
      <trkpt lat="45.98487" lon="6.24751">
        <ele>797.15</ele>
        <time>2011-05-28T12:59:55Z</time>
      </trkpt>
      <trkpt lat="45.98499" lon="6.2479">
        <ele>788.42</ele>
        <time>2011-05-28T13:00:19Z</time>
      </trkpt>
      <trkpt lat="45.98508" lon="6.24777">
        <ele>799.52</ele>
        <time>2011-05-28T13:00:40.003Z</time>
      </trkpt>
      <trkpt lat="45.98477" lon="6.24779">
        <ele>806.78</ele>
        <time>2011-05-28T13:01:18Z</time>
      </trkpt>
      <trkpt lat="45.98477" lon="6.24788">
        <ele>806.84</ele>
        <time>2011-05-28T13:01:27Z</time>
      </trkpt>
      <trkpt lat="45.98511" lon="6.24829">
        <ele>782.18</ele>
        <time>2011-05-28T13:02:09Z</time>
      </trkpt>
      <trkpt lat="45.98519" lon="6.24826">
        <ele>797.46</ele>
        <time>2011-05-28T13:02:12Z</time>
      </trkpt>
      <trkpt lat="45.98523" lon="6.24852">
        <ele>795.83</ele>
        <time>2011-05-28T13:02:36Z</time>
      </trkpt>
      <trkpt lat="45.98518" lon="6.24856">
        <ele>799.81</ele>
        <time>2011-05-28T13:02:49Z</time>
      </trkpt>
      <trkpt lat="45.98519" lon="6.24871">
        <ele>798.79</ele>
        <time>2011-05-28T13:02:58.002Z</time>
      </trkpt>
      <trkpt lat="45.98589" lon="6.24973">
        <ele>783.86</ele>
        <time>2011-05-28T13:04:45Z</time>
      </trkpt>
      <trkpt lat="45.98592" lon="6.24967">
        <ele>789.38</ele>
        <time>2011-05-28T13:04:55.002Z</time>
      </trkpt>
      <trkpt lat="45.98606" lon="6.2498">
        <ele>799.67</ele>
        <time>2011-05-28T13:05:40Z</time>
      </trkpt>
      <trkpt lat="45.98598" lon="6.24995">
        <ele>797.61</ele>
        <time>2011-05-28T13:05:52Z</time>
      </trkpt>
      <trkpt lat="45.98577" lon="6.24998">
        <ele>786.16</ele>
        <time>2011-05-28T13:06:19Z</time>
      </trkpt>
      <trkpt lat="45.98571" lon="6.25022">
        <ele>792.74</ele>
        <time>2011-05-28T13:06:52.002Z</time>
      </trkpt>
      <trkpt lat="45.98576" lon="6.25033">
        <ele>794.84</ele>
        <time>2011-05-28T13:07:01Z</time>
      </trkpt>
      <trkpt lat="45.98551" lon="6.25051">
        <ele>812.4</ele>
        <time>2011-05-28T13:07:52.001Z</time>
      </trkpt>
      <trkpt lat="45.98562" lon="6.25064">
        <ele>812.48</ele>
        <time>2011-05-28T13:08:04Z</time>
      </trkpt>
      <trkpt lat="45.9856" lon="6.25079">
        <ele>791.73</ele>
        <time>2011-05-28T13:08:12Z</time>
      </trkpt>
      <trkpt lat="45.98551" lon="6.25084">
        <ele>797.53</ele>
        <time>2011-05-28T13:08:18Z</time>
      </trkpt>
      <trkpt lat="45.98565" lon="6.25128">
        <ele>787.9</ele>
        <time>2011-05-28T13:08:46Z</time>
      </trkpt>
      <trkpt lat="45.98591" lon="6.25151">
        <ele>789.51</ele>
        <time>2011-05-28T13:08:57Z</time>
      </trkpt>
      <trkpt lat="45.9862" lon="6.25216">
        <ele>768.35</ele>
        <time>2011-05-28T13:09:31.001Z</time>
      </trkpt>
      <trkpt lat="45.98635" lon="6.25233">
        <ele>757.47</ele>
        <time>2011-05-28T13:09:42.998Z</time>
      </trkpt>
      <trkpt lat="45.98669" lon="6.25239">
        <ele>765.11</ele>
        <time>2011-05-28T13:10:06.998Z</time>
      </trkpt>
      <trkpt lat="45.98689" lon="6.25226">
        <ele>762.9</ele>
        <time>2011-05-28T13:10:24.998Z</time>
      </trkpt>
      <trkpt lat="45.98682" lon="6.25225">
        <ele>755.58</ele>
        <time>2011-05-28T13:10:31Z</time>
      </trkpt>
      <trkpt lat="45.98709" lon="6.25266">
        <ele>728.15</ele>
        <time>2011-05-28T13:11:10Z</time>
      </trkpt>
      <trkpt lat="45.98715" lon="6.25262">
        <ele>739.41</ele>
        <time>2011-05-28T13:11:16.001Z</time>
      </trkpt>
      <trkpt lat="45.98701" lon="6.25243">
        <ele>741.92</ele>
        <time>2011-05-28T13:11:37.002Z</time>
      </trkpt>
      <trkpt lat="45.98702" lon="6.25222">
        <ele>755.51</ele>
        <time>2011-05-28T13:11:55Z</time>
      </trkpt>
      <trkpt lat="45.98692" lon="6.25209">
        <ele>757.3</ele>
        <time>2011-05-28T13:12:10.001Z</time>
      </trkpt>
      <trkpt lat="45.98665" lon="6.2523">
        <ele>755.18</ele>
        <time>2011-05-28T13:12:39.999Z</time>
      </trkpt>
      <trkpt lat="45.98647" lon="6.2523">
        <ele>768.43</ele>
        <time>2011-05-28T13:13:03.997Z</time>
      </trkpt>
      <trkpt lat="45.98641" lon="6.25216">
        <ele>772.33</ele>
        <time>2011-05-28T13:13:18.997Z</time>
      </trkpt>
      <trkpt lat="45.98616" lon="6.25209">
        <ele>765.65</ele>
        <time>2011-05-28T13:13:39Z</time>
      </trkpt>
      <trkpt lat="45.98611" lon="6.25231">
        <ele>776.76</ele>
        <time>2011-05-28T13:14:01Z</time>
      </trkpt>
      <trkpt lat="45.98615" lon="6.25261">
        <ele>784.94</ele>
        <time>2011-05-28T13:14:25Z</time>
      </trkpt>
      <trkpt lat="45.9861" lon="6.25265">
        <ele>780.59</ele>
        <time>2011-05-28T13:14:31Z</time>
      </trkpt>
      <trkpt lat="45.98611" lon="6.25254">
        <ele>791.5</ele>
        <time>2011-05-28T13:14:46.002Z</time>
      </trkpt>
      <trkpt lat="45.98605" lon="6.25255">
        <ele>785.87</ele>
        <time>2011-05-28T13:14:51.999Z</time>
      </trkpt>
      <trkpt lat="45.98583" lon="6.25215">
        <ele>789.59</ele>
        <time>2011-05-28T13:15:33.999Z</time>
      </trkpt>
      <trkpt lat="45.98587" lon="6.25201">
        <ele>802.78</ele>
        <time>2011-05-28T13:15:46Z</time>
      </trkpt>
      <trkpt lat="45.9857" lon="6.25209">
        <ele>802.41</ele>
        <time>2011-05-28T13:16:01Z</time>
      </trkpt>
      <trkpt lat="45.98575" lon="6.25219">
        <ele>815.08</ele>
        <time>2011-05-28T13:16:13Z</time>
      </trkpt>
      <trkpt lat="45.98559" lon="6.25243">
        <ele>805.69</ele>
        <time>2011-05-28T13:16:34Z</time>
      </trkpt>
      <trkpt lat="45.98561" lon="6.25278">
        <ele>807.81</ele>
        <time>2011-05-28T13:16:58Z</time>
      </trkpt>
      <trkpt lat="45.98576" lon="6.25321">
        <ele>824.26</ele>
        <time>2011-05-28T13:17:31Z</time>
      </trkpt>
      <trkpt lat="45.98574" lon="6.25334">
        <ele>822.17</ele>
        <time>2011-05-28T13:17:45.998Z</time>
      </trkpt>
      <trkpt lat="45.98564" lon="6.25336">
        <ele>814.58</ele>
        <time>2011-05-28T13:18:01Z</time>
      </trkpt>
      <trkpt lat="45.98545" lon="6.25306">
        <ele>835.15</ele>
        <time>2011-05-28T13:18:33.999Z</time>
      </trkpt>
      <trkpt lat="45.98548" lon="6.25299">
        <ele>842.72</ele>
        <time>2011-05-28T13:18:39.999Z</time>
      </trkpt>
      <trkpt lat="45.98496" lon="6.25254">
        <ele>846.02</ele>
        <time>2011-05-28T13:19:40.002Z</time>
      </trkpt>
      <trkpt lat="45.98499" lon="6.25292">
        <ele>859.61</ele>
        <time>2011-05-28T13:20:16Z</time>
      </trkpt>
      <trkpt lat="45.9851" lon="6.25308">
        <ele>874.6</ele>
        <time>2011-05-28T13:20:31.002Z</time>
      </trkpt>
      <trkpt lat="45.98513" lon="6.25338">
        <ele>891.07</ele>
        <time>2011-05-28T13:21:01.002Z</time>
      </trkpt>
      <trkpt lat="45.98482" lon="6.25306">
        <ele>882.77</ele>
        <time>2011-05-28T13:22:07.001Z</time>
      </trkpt>
      <trkpt lat="45.98483" lon="6.25294">
        <ele>894.47</ele>
        <time>2011-05-28T13:22:21.998Z</time>
      </trkpt>
      <trkpt lat="45.98467" lon="6.25276">
        <ele>891.54</ele>
        <time>2011-05-28T13:22:42Z</time>
      </trkpt>
      <trkpt lat="45.98466" lon="6.25258">
        <ele>908.38</ele>
        <time>2011-05-28T13:22:55Z</time>
      </trkpt>
      <trkpt lat="45.98443" lon="6.25239">
        <ele>904.14</ele>
        <time>2011-05-28T13:23:28Z</time>
      </trkpt>
      <trkpt lat="45.98444" lon="6.25231">
        <ele>904.97</ele>
        <time>2011-05-28T13:23:37Z</time>
      </trkpt>
      <trkpt lat="45.98418" lon="6.25215">
        <ele>900.14</ele>
        <time>2011-05-28T13:23:58Z</time>
      </trkpt>
      <trkpt lat="45.98423" lon="6.25203">
        <ele>915.65</ele>
        <time>2011-05-28T13:24:06.997Z</time>
      </trkpt>
      <trkpt lat="45.98406" lon="6.25194">
        <ele>909.26</ele>
        <time>2011-05-28T13:24:21.998Z</time>
      </trkpt>
      <trkpt lat="45.98407" lon="6.25184">
        <ele>918.56</ele>
        <time>2011-05-28T13:24:40Z</time>
      </trkpt>
      <trkpt lat="45.98393" lon="6.25198">
        <ele>907.96</ele>
        <time>2011-05-28T13:24:58.002Z</time>
      </trkpt>
      <trkpt lat="45.98393" lon="6.25236">
        <ele>920.37</ele>
        <time>2011-05-28T13:25:31Z</time>
      </trkpt>
      <trkpt lat="45.98407" lon="6.25229">
        <ele>937.15</ele>
        <time>2011-05-28T13:25:43Z</time>
      </trkpt>
      <trkpt lat="45.98393" lon="6.2521">
        <ele>949.07</ele>
        <time>2011-05-28T13:26:12.998Z</time>
      </trkpt>
      <trkpt lat="45.98368" lon="6.25225">
        <ele>932.58</ele>
        <time>2011-05-28T13:26:34Z</time>
      </trkpt>
      <trkpt lat="45.98376" lon="6.25237">
        <ele>929.78</ele>
        <time>2011-05-28T13:26:43Z</time>
      </trkpt>
      <trkpt lat="45.98382" lon="6.25276">
        <ele>941.74</ele>
        <time>2011-05-28T13:27:16.001Z</time>
      </trkpt>
      <trkpt lat="45.98392" lon="6.25283">
        <ele>956.78</ele>
        <time>2011-05-28T13:27:24.997Z</time>
      </trkpt>
      <trkpt lat="45.98391" lon="6.25274">
        <ele>962.53</ele>
        <time>2011-05-28T13:27:42.998Z</time>
      </trkpt>
      <trkpt lat="45.98355" lon="6.25263">
        <ele>946.8</ele>
        <time>2011-05-28T13:28:07.001Z</time>
      </trkpt>
      <trkpt lat="45.98331" lon="6.25236">
        <ele>941</ele>
        <time>2011-05-28T13:28:34.001Z</time>
      </trkpt>
      <trkpt lat="45.98335" lon="6.2523">
        <ele>947.49</ele>
        <time>2011-05-28T13:28:39.999Z</time>
      </trkpt>
      <trkpt lat="45.98322" lon="6.25235">
        <ele>955.12</ele>
        <time>2011-05-28T13:29:00.999Z</time>
      </trkpt>
      <trkpt lat="45.98331" lon="6.25244">
        <ele>962.51</ele>
        <time>2011-05-28T13:29:07Z</time>
      </trkpt>
      <trkpt lat="45.98343" lon="6.2529">
        <ele>979.57</ele>
        <time>2011-05-28T13:29:39.999Z</time>
      </trkpt>
      <trkpt lat="45.98351" lon="6.25293">
        <ele>989.05</ele>
        <time>2011-05-28T13:29:48Z</time>
      </trkpt>
      <trkpt lat="45.98353" lon="6.2531">
        <ele>995.31</ele>
        <time>2011-05-28T13:30:04.002Z</time>
      </trkpt>
      <trkpt lat="45.98365" lon="6.25325">
        <ele>991.43</ele>
        <time>2011-05-28T13:30:12Z</time>
      </trkpt>
      <trkpt lat="45.98359" lon="6.25342">
        <ele>990.8</ele>
        <time>2011-05-28T13:30:22.002Z</time>
      </trkpt>
      <trkpt lat="45.98364" lon="6.25359">
        <ele>993.31</ele>
        <time>2011-05-28T13:30:31Z</time>
      </trkpt>
      <trkpt lat="45.98358" lon="6.25364">
        <ele>992.49</ele>
        <time>2011-05-28T13:30:43Z</time>
      </trkpt>
      <trkpt lat="45.98348" lon="6.25333">
        <ele>1007.92</ele>
        <time>2011-05-28T13:31:25.002Z</time>
      </trkpt>
      <trkpt lat="45.98321" lon="6.25295">
        <ele>1015.18</ele>
        <time>2011-05-28T13:32:04Z</time>
      </trkpt>
      <trkpt lat="45.98324" lon="6.2529">
        <ele>1019.39</ele>
        <time>2011-05-28T13:32:07.002Z</time>
      </trkpt>
      <trkpt lat="45.98299" lon="6.25293">
        <ele>1012.7</ele>
        <time>2011-05-28T13:32:30.998Z</time>
      </trkpt>
      <trkpt lat="45.98305" lon="6.25301">
        <ele>1033.94</ele>
        <time>2011-05-28T13:32:54.999Z</time>
      </trkpt>
      <trkpt lat="45.98291" lon="6.25281">
        <ele>1029.22</ele>
        <time>2011-05-28T13:33:27.998Z</time>
      </trkpt>
      <trkpt lat="45.98284" lon="6.2529">
        <ele>1022.22</ele>
        <time>2011-05-28T13:33:39.999Z</time>
      </trkpt>
      <trkpt lat="45.98285" lon="6.25306">
        <ele>1019.55</ele>
        <time>2011-05-28T13:33:49.003Z</time>
      </trkpt>
      <trkpt lat="45.98279" lon="6.25307">
        <ele>1024.35</ele>
        <time>2011-05-28T13:34:01Z</time>
      </trkpt>
      <trkpt lat="45.98285" lon="6.25335">
        <ele>1026.76</ele>
        <time>2011-05-28T13:34:13.002Z</time>
      </trkpt>
      <trkpt lat="45.98279" lon="6.25334">
        <ele>1025.19</ele>
        <time>2011-05-28T13:34:16.001Z</time>
      </trkpt>
      <trkpt lat="45.98283" lon="6.25364">
        <ele>1033.5</ele>
        <time>2011-05-28T13:34:37.001Z</time>
      </trkpt>
      <trkpt lat="45.98275" lon="6.25383">
        <ele>1042.85</ele>
        <time>2011-05-28T13:34:52.003Z</time>
      </trkpt>
      <trkpt lat="45.98279" lon="6.25391">
        <ele>1044.38</ele>
        <time>2011-05-28T13:34:58Z</time>
      </trkpt>
      <trkpt lat="45.9827" lon="6.25397">
        <ele>1037.93</ele>
        <time>2011-05-28T13:35:03.998Z</time>
      </trkpt>
      <trkpt lat="45.98281" lon="6.25417">
        <ele>1048.05</ele>
        <time>2011-05-28T13:35:19.002Z</time>
      </trkpt>
      <trkpt lat="45.98274" lon="6.25415">
        <ele>1048.22</ele>
        <time>2011-05-28T13:35:28Z</time>
      </trkpt>
      <trkpt lat="45.98299" lon="6.25407">
        <ele>1068.14</ele>
        <time>2011-05-28T13:35:36Z</time>
      </trkpt>
      <trkpt lat="45.98284" lon="6.25393">
        <ele>1071.79</ele>
        <time>2011-05-28T13:35:55Z</time>
      </trkpt>
      <trkpt lat="45.98286" lon="6.25385">
        <ele>1074.53</ele>
        <time>2011-05-28T13:36:01.002Z</time>
      </trkpt>
      <trkpt lat="45.98265" lon="6.2537">
        <ele>1072.2</ele>
        <time>2011-05-28T13:36:21.998Z</time>
      </trkpt>
      <trkpt lat="45.98265" lon="6.25354">
        <ele>1077.96</ele>
        <time>2011-05-28T13:36:34.003Z</time>
      </trkpt>
      <trkpt lat="45.98239" lon="6.25329">
        <ele>1049.85</ele>
        <time>2011-05-28T13:36:51.994Z</time>
      </trkpt>
      <trkpt lat="45.98226" lon="6.25334">
        <ele>1045.69</ele>
        <time>2011-05-28T13:37:03.998Z</time>
      </trkpt>
      <trkpt lat="45.98232" lon="6.25351">
        <ele>1065.68</ele>
        <time>2011-05-28T13:37:19Z</time>
      </trkpt>
      <trkpt lat="45.98227" lon="6.25362">
        <ele>1061.93</ele>
        <time>2011-05-28T13:37:28.002Z</time>
      </trkpt>
      <trkpt lat="45.98236" lon="6.25358">
        <ele>1070.93</ele>
        <time>2011-05-28T13:37:37.002Z</time>
      </trkpt>
      <trkpt lat="45.98229" lon="6.25341">
        <ele>1074.95</ele>
        <time>2011-05-28T13:37:55Z</time>
      </trkpt>
      <trkpt lat="45.98216" lon="6.25361">
        <ele>1071.22</ele>
        <time>2011-05-28T13:38:13.001Z</time>
      </trkpt>
      <trkpt lat="45.98242" lon="6.25358">
        <ele>1102.29</ele>
        <time>2011-05-28T13:38:24Z</time>
      </trkpt>
      <trkpt lat="45.98235" lon="6.25341">
        <ele>1110.84</ele>
        <time>2011-05-28T13:38:51.998Z</time>
      </trkpt>
      <trkpt lat="45.98226" lon="6.25345">
        <ele>1100.43</ele>
        <time>2011-05-28T13:39:10.002Z</time>
      </trkpt>
      <trkpt lat="45.98195" lon="6.25312">
        <ele>1087.88</ele>
        <time>2011-05-28T13:39:52Z</time>
      </trkpt>
      <trkpt lat="45.982" lon="6.25314">
        <ele>1095.59</ele>
        <time>2011-05-28T13:39:55Z</time>
      </trkpt>
      <trkpt lat="45.98182" lon="6.25331">
        <ele>1090.2</ele>
        <time>2011-05-28T13:40:19.002Z</time>
      </trkpt>
      <trkpt lat="45.9818" lon="6.25345">
        <ele>1090.84</ele>
        <time>2011-05-28T13:40:30Z</time>
      </trkpt>
      <trkpt lat="45.98199" lon="6.25335">
        <ele>1109.77</ele>
        <time>2011-05-28T13:40:33Z</time>
      </trkpt>
      <trkpt lat="45.98215" lon="6.25346">
        <ele>1124.16</ele>
        <time>2011-05-28T13:40:52Z</time>
      </trkpt>
      <trkpt lat="45.98204" lon="6.25335">
        <ele>1131.75</ele>
        <time>2011-05-28T13:41:16Z</time>
      </trkpt>
      <trkpt lat="45.98208" lon="6.25341">
        <ele>1139.86</ele>
        <time>2011-05-28T13:41:22.001Z</time>
      </trkpt>
      <trkpt lat="45.98191" lon="6.25349">
        <ele>1127.11</ele>
        <time>2011-05-28T13:41:34Z</time>
      </trkpt>
      <trkpt lat="45.98194" lon="6.25356">
        <ele>1130.04</ele>
        <time>2011-05-28T13:41:40.003Z</time>
      </trkpt>
      <trkpt lat="45.98183" lon="6.25369">
        <ele>1119.1</ele>
        <time>2011-05-28T13:41:52Z</time>
      </trkpt>
      <trkpt lat="45.98192" lon="6.25375">
        <ele>1123.82</ele>
        <time>2011-05-28T13:41:58Z</time>
      </trkpt>
      <trkpt lat="45.98196" lon="6.25392">
        <ele>1132.13</ele>
        <time>2011-05-28T13:42:10.002Z</time>
      </trkpt>
      <trkpt lat="45.98192" lon="6.2538">
        <ele>1131.88</ele>
        <time>2011-05-28T13:42:22Z</time>
      </trkpt>
      <trkpt lat="45.98198" lon="6.25357">
        <ele>1139.71</ele>
        <time>2011-05-28T13:42:37Z</time>
      </trkpt>
      <trkpt lat="45.98178" lon="6.25351">
        <ele>1135.8</ele>
        <time>2011-05-28T13:42:48Z</time>
      </trkpt>
      <trkpt lat="45.98187" lon="6.25344">
        <ele>1146.57</ele>
        <time>2011-05-28T13:42:52Z</time>
      </trkpt>
      <trkpt lat="45.98177" lon="6.25322">
        <ele>1143.77</ele>
        <time>2011-05-28T13:43:16Z</time>
      </trkpt>
      <trkpt lat="45.98156" lon="6.25314">
        <ele>1128.28</ele>
        <time>2011-05-28T13:43:31Z</time>
      </trkpt>
      <trkpt lat="45.98165" lon="6.25307">
        <ele>1143.22</ele>
        <time>2011-05-28T13:43:39.999Z</time>
      </trkpt>
      <trkpt lat="45.98153" lon="6.25301">
        <ele>1146.06</ele>
        <time>2011-05-28T13:43:52.002Z</time>
      </trkpt>
      <trkpt lat="45.98161" lon="6.2529">
        <ele>1153.06</ele>
        <time>2011-05-28T13:43:58Z</time>
      </trkpt>
      <trkpt lat="45.98125" lon="6.25266">
        <ele>1145.96</ele>
        <time>2011-05-28T13:44:36Z</time>
      </trkpt>
      <trkpt lat="45.98134" lon="6.25257">
        <ele>1175.42</ele>
        <time>2011-05-28T13:44:58.003Z</time>
      </trkpt>
      <trkpt lat="45.98112" lon="6.25242">
        <ele>1181.09</ele>
        <time>2011-05-28T13:45:36.998Z</time>
      </trkpt>
      <trkpt lat="45.98115" lon="6.25223">
        <ele>1196.72</ele>
        <time>2011-05-28T13:45:51Z</time>
      </trkpt>
      <trkpt lat="45.98097" lon="6.25194">
        <ele>1202.96</ele>
        <time>2011-05-28T13:46:18.998Z</time>
      </trkpt>
      <trkpt lat="45.98064" lon="6.25183">
        <ele>1187.65</ele>
        <time>2011-05-28T13:46:39.999Z</time>
      </trkpt>
      <trkpt lat="45.98025" lon="6.25153">
        <ele>1178.88</ele>
        <time>2011-05-28T13:47:04.002Z</time>
      </trkpt>
      <trkpt lat="45.98029" lon="6.25142">
        <ele>1187.64</ele>
        <time>2011-05-28T13:47:09.999Z</time>
      </trkpt>
      <trkpt lat="45.98003" lon="6.25136">
        <ele>1180.75</ele>
        <time>2011-05-28T13:47:25Z</time>
      </trkpt>
      <trkpt lat="45.98013" lon="6.25138">
        <ele>1189.75</ele>
        <time>2011-05-28T13:47:33.997Z</time>
      </trkpt>
      <trkpt lat="45.97969" lon="6.25124">
        <ele>1193.63</ele>
        <time>2011-05-28T13:47:55Z</time>
      </trkpt>
      <trkpt lat="45.97955" lon="6.25132">
        <ele>1191.06</ele>
        <time>2011-05-28T13:48:04.002Z</time>
      </trkpt>
      <trkpt lat="45.97923" lon="6.2511">
        <ele>1201.85</ele>
        <time>2011-05-28T13:48:15.999Z</time>
      </trkpt>
      <trkpt lat="45.97915" lon="6.25115">
        <ele>1202.59</ele>
        <time>2011-05-28T13:48:28.001Z</time>
      </trkpt>
      <trkpt lat="45.97883" lon="6.25086">
        <ele>1212.98</ele>
        <time>2011-05-28T13:48:39.997Z</time>
      </trkpt>
      <trkpt lat="45.9788" lon="6.25096">
        <ele>1206.1</ele>
        <time>2011-05-28T13:48:45.998Z</time>
      </trkpt>
      <trkpt lat="45.97864" lon="6.25098">
        <ele>1201.87</ele>
        <time>2011-05-28T13:49:01.002Z</time>
      </trkpt>
      <trkpt lat="45.97877" lon="6.25111">
        <ele>1203.34</ele>
        <time>2011-05-28T13:49:03Z</time>
      </trkpt>
      <trkpt lat="45.97872" lon="6.25106">
        <ele>1215.3</ele>
        <time>2011-05-28T13:49:09Z</time>
      </trkpt>
      <trkpt lat="45.97911" lon="6.25152">
        <ele>1236.11</ele>
        <time>2011-05-28T13:49:49Z</time>
      </trkpt>
      <trkpt lat="45.97936" lon="6.25151">
        <ele>1239.95</ele>
        <time>2011-05-28T13:50:12Z</time>
      </trkpt>
      <trkpt lat="45.97967" lon="6.25169">
        <ele>1242.61</ele>
        <time>2011-05-28T13:50:39Z</time>
      </trkpt>
      <trkpt lat="45.97991" lon="6.25213">
        <ele>1249.92</ele>
        <time>2011-05-28T13:51:19Z</time>
      </trkpt>
      <trkpt lat="45.97985" lon="6.25227">
        <ele>1238.84</ele>
        <time>2011-05-28T13:51:37.001Z</time>
      </trkpt>
      <trkpt lat="45.98019" lon="6.25275">
        <ele>1261.3</ele>
        <time>2011-05-28T13:52:09Z</time>
      </trkpt>
      <trkpt lat="45.98017" lon="6.25292">
        <ele>1268.14</ele>
        <time>2011-05-28T13:52:25.002Z</time>
      </trkpt>
      <trkpt lat="45.9801" lon="6.25294">
        <ele>1264.1</ele>
        <time>2011-05-28T13:52:27Z</time>
      </trkpt>
      <trkpt lat="45.98039" lon="6.25323">
        <ele>1276</ele>
        <time>2011-05-28T13:52:48Z</time>
      </trkpt>
      <trkpt lat="45.98056" lon="6.25377">
        <ele>1280.77</ele>
        <time>2011-05-28T13:53:36Z</time>
      </trkpt>
      <trkpt lat="45.98047" lon="6.25397">
        <ele>1280.71</ele>
        <time>2011-05-28T13:54:01Z</time>
      </trkpt>
      <trkpt lat="45.9805" lon="6.25407">
        <ele>1282.39</ele>
        <time>2011-05-28T13:54:06.998Z</time>
      </trkpt>
      <trkpt lat="45.98073" lon="6.25414">
        <ele>1298.43</ele>
        <time>2011-05-28T13:54:24.997Z</time>
      </trkpt>
      <trkpt lat="45.98059" lon="6.25425">
        <ele>1283.77</ele>
        <time>2011-05-28T13:54:52.003Z</time>
      </trkpt>
      <trkpt lat="45.98056" lon="6.25438">
        <ele>1281.4</ele>
        <time>2011-05-28T13:55:03Z</time>
      </trkpt>
      <trkpt lat="45.98068" lon="6.2545">
        <ele>1286.69</ele>
        <time>2011-05-28T13:55:12Z</time>
      </trkpt>
      <trkpt lat="45.9806" lon="6.2547">
        <ele>1286.68</ele>
        <time>2011-05-28T13:55:33.998Z</time>
      </trkpt>
      <trkpt lat="45.98076" lon="6.255">
        <ele>1296.98</ele>
        <time>2011-05-28T13:56:00.998Z</time>
      </trkpt>
      <trkpt lat="45.98069" lon="6.25505">
        <ele>1295.48</ele>
        <time>2011-05-28T13:56:12Z</time>
      </trkpt>
      <trkpt lat="45.98075" lon="6.25513">
        <ele>1299.72</ele>
        <time>2011-05-28T13:56:25.001Z</time>
      </trkpt>
      <trkpt lat="45.98069" lon="6.25539">
        <ele>1289.99</ele>
        <time>2011-05-28T13:56:54.999Z</time>
      </trkpt>
      <trkpt lat="45.98063" lon="6.2554">
        <ele>1286.5</ele>
        <time>2011-05-28T13:57:07Z</time>
      </trkpt>
      <trkpt lat="45.9807" lon="6.2554">
        <ele>1295</ele>
        <time>2011-05-28T13:57:19.002Z</time>
      </trkpt>
      <trkpt lat="45.9806" lon="6.25547">
        <ele>1291.84</ele>
        <time>2011-05-28T13:57:28.002Z</time>
      </trkpt>
      <trkpt lat="45.98076" lon="6.2555">
        <ele>1295.63</ele>
        <time>2011-05-28T13:57:45Z</time>
      </trkpt>
      <trkpt lat="45.98067" lon="6.25541">
        <ele>1294.07</ele>
        <time>2011-05-28T13:57:58.003Z</time>
      </trkpt>
      <trkpt lat="45.98066" lon="6.25524">
        <ele>1300.26</ele>
        <time>2011-05-28T13:58:22.002Z</time>
      </trkpt>
      <trkpt lat="45.98072" lon="6.2553">
        <ele>1312.07</ele>
        <time>2011-05-28T13:58:34Z</time>
      </trkpt>
      <trkpt lat="45.98064" lon="6.25533">
        <ele>1313.78</ele>
        <time>2011-05-28T13:58:48Z</time>
      </trkpt>
      <trkpt lat="45.98069" lon="6.2554">
        <ele>1317.58</ele>
        <time>2011-05-28T13:59:01Z</time>
      </trkpt>
      <trkpt lat="45.98057" lon="6.25531">
        <ele>1313.04</ele>
        <time>2011-05-28T13:59:18.997Z</time>
      </trkpt>
      <trkpt lat="45.98056" lon="6.25516">
        <ele>1316.66</ele>
        <time>2011-05-28T13:59:33.998Z</time>
      </trkpt>
      <trkpt lat="45.98062" lon="6.25512">
        <ele>1322.84</ele>
        <time>2011-05-28T13:59:37Z</time>
      </trkpt>
      <trkpt lat="45.98047" lon="6.25507">
        <ele>1315.31</ele>
        <time>2011-05-28T13:59:51.999Z</time>
      </trkpt>
      <trkpt lat="45.98053" lon="6.25513">
        <ele>1319.6</ele>
        <time>2011-05-28T13:59:58Z</time>
      </trkpt>
      <trkpt lat="45.98042" lon="6.2553">
        <ele>1317.43</ele>
        <time>2011-05-28T14:00:18.997Z</time>
      </trkpt>
      <trkpt lat="45.9805" lon="6.25532">
        <ele>1330.19</ele>
        <time>2011-05-28T14:00:25Z</time>
      </trkpt>
      <trkpt lat="45.98032" lon="6.25536">
        <ele>1317.07</ele>
        <time>2011-05-28T14:00:42Z</time>
      </trkpt>
      <trkpt lat="45.98063" lon="6.2558">
        <ele>1353.11</ele>
        <time>2011-05-28T14:01:18.998Z</time>
      </trkpt>
      <trkpt lat="45.98058" lon="6.25629">
        <ele>1346.99</ele>
        <time>2011-05-28T14:02:12Z</time>
      </trkpt>
      <trkpt lat="45.98067" lon="6.25631">
        <ele>1345.21</ele>
        <time>2011-05-28T14:02:15Z</time>
      </trkpt>
      <trkpt lat="45.98075" lon="6.25614">
        <ele>1352.5</ele>
        <time>2011-05-28T14:02:28.001Z</time>
      </trkpt>
      <trkpt lat="45.98053" lon="6.25608">
        <ele>1353.64</ele>
        <time>2011-05-28T14:02:45Z</time>
      </trkpt>
      <trkpt lat="45.98048" lon="6.25622">
        <ele>1355.1</ele>
        <time>2011-05-28T14:02:57Z</time>
      </trkpt>
      <trkpt lat="45.98053" lon="6.25638">
        <ele>1363.79</ele>
        <time>2011-05-28T14:03:27Z</time>
      </trkpt>
      <trkpt lat="45.98056" lon="6.25624">
        <ele>1365.28</ele>
        <time>2011-05-28T14:03:39Z</time>
      </trkpt>
      <trkpt lat="45.98047" lon="6.25596">
        <ele>1370.63</ele>
        <time>2011-05-28T14:04:00.998Z</time>
      </trkpt>
      <trkpt lat="45.98012" lon="6.25562">
        <ele>1376.04</ele>
        <time>2011-05-28T14:04:33.997Z</time>
      </trkpt>
      <trkpt lat="45.97997" lon="6.2556">
        <ele>1372.07</ele>
        <time>2011-05-28T14:04:39Z</time>
      </trkpt>
      <trkpt lat="45.98003" lon="6.2555">
        <ele>1375.4</ele>
        <time>2011-05-28T14:04:42Z</time>
      </trkpt>
      <trkpt lat="45.97996" lon="6.25525">
        <ele>1383.94</ele>
        <time>2011-05-28T14:04:57.997Z</time>
      </trkpt>
      <trkpt lat="45.97968" lon="6.25509">
        <ele>1386.3</ele>
        <time>2011-05-28T14:05:25Z</time>
      </trkpt>
      <trkpt lat="45.97891" lon="6.25503">
        <ele>1377.06</ele>
        <time>2011-05-28T14:06:19.001Z</time>
      </trkpt>
      <trkpt lat="45.97875" lon="6.2549">
        <ele>1396.37</ele>
        <time>2011-05-28T14:06:34.002Z</time>
      </trkpt>
      <trkpt lat="45.97828" lon="6.25493">
        <ele>1396.95</ele>
        <time>2011-05-28T14:07:12.998Z</time>
      </trkpt>
      <trkpt lat="45.97827" lon="6.255">
        <ele>1392.87</ele>
        <time>2011-05-28T14:07:16Z</time>
      </trkpt>
      <trkpt lat="45.97796" lon="6.25504">
        <ele>1407.65</ele>
        <time>2011-05-28T14:07:37.001Z</time>
      </trkpt>
      <trkpt lat="45.97782" lon="6.25534">
        <ele>1405.18</ele>
        <time>2011-05-28T14:07:58.002Z</time>
      </trkpt>
      <trkpt lat="45.97774" lon="6.25531">
        <ele>1406</ele>
        <time>2011-05-28T14:08:01.002Z</time>
      </trkpt>
      <trkpt lat="45.97754" lon="6.2559">
        <ele>1396.79</ele>
        <time>2011-05-28T14:08:28.001Z</time>
      </trkpt>
      <trkpt lat="45.97757" lon="6.256">
        <ele>1395.48</ele>
        <time>2011-05-28T14:08:33.998Z</time>
      </trkpt>
      <trkpt lat="45.97733" lon="6.25589">
        <ele>1417.1</ele>
        <time>2011-05-28T14:08:45Z</time>
      </trkpt>
      <trkpt lat="45.97711" lon="6.25599">
        <ele>1419.75</ele>
        <time>2011-05-28T14:09:07.002Z</time>
      </trkpt>
      <trkpt lat="45.9771" lon="6.25609">
        <ele>1415.48</ele>
        <time>2011-05-28T14:09:12.999Z</time>
      </trkpt>
      <trkpt lat="45.97693" lon="6.25612">
        <ele>1414.7</ele>
        <time>2011-05-28T14:09:27.998Z</time>
      </trkpt>
      <trkpt lat="45.97681" lon="6.25632">
        <ele>1407.04</ele>
        <time>2011-05-28T14:09:40Z</time>
      </trkpt>
      <trkpt lat="45.97689" lon="6.25641">
        <ele>1398.16</ele>
        <time>2011-05-28T14:09:49Z</time>
      </trkpt>
      <trkpt lat="45.97678" lon="6.25653">
        <ele>1422.34</ele>
        <time>2011-05-28T14:10:09Z</time>
      </trkpt>
      <trkpt lat="45.97683" lon="6.25665">
        <ele>1438.43</ele>
        <time>2011-05-28T14:10:19.002Z</time>
      </trkpt>
      <trkpt lat="45.97681" lon="6.25692">
        <ele>1439.43</ele>
        <time>2011-05-28T14:10:42.998Z</time>
      </trkpt>
      <trkpt lat="45.97653" lon="6.25676">
        <ele>1441.37</ele>
        <time>2011-05-28T14:11:46Z</time>
      </trkpt>
      <trkpt lat="45.97631" lon="6.25675">
        <ele>1446.99</ele>
        <time>2011-05-28T14:12:07.004Z</time>
      </trkpt>
      <trkpt lat="45.97623" lon="6.25661">
        <ele>1446.91</ele>
        <time>2011-05-28T14:12:18.998Z</time>
      </trkpt>
      <trkpt lat="45.97559" lon="6.25642">
        <ele>1466.51</ele>
        <time>2011-05-28T14:13:12Z</time>
      </trkpt>
      <trkpt lat="45.97553" lon="6.25613">
        <ele>1459.1</ele>
        <time>2011-05-28T14:13:30Z</time>
      </trkpt>
      <trkpt lat="45.97481" lon="6.25535">
        <ele>1454.26</ele>
        <time>2011-05-28T14:14:52.001Z</time>
      </trkpt>
      <trkpt lat="45.97484" lon="6.25526">
        <ele>1456.08</ele>
        <time>2011-05-28T14:15:01.002Z</time>
      </trkpt>
      <trkpt lat="45.97417" lon="6.25507">
        <ele>1494.6</ele>
        <time>2011-05-28T14:15:34.001Z</time>
      </trkpt>
      <trkpt lat="45.97394" lon="6.25537">
        <ele>1485.52</ele>
        <time>2011-05-28T14:16:04.003Z</time>
      </trkpt>
      <trkpt lat="45.9738" lon="6.25538">
        <ele>1487.68</ele>
        <time>2011-05-28T14:16:16Z</time>
      </trkpt>
      <trkpt lat="45.9738" lon="6.25557">
        <ele>1482.59</ele>
        <time>2011-05-28T14:16:24Z</time>
      </trkpt>
      <trkpt lat="45.97326" lon="6.25606">
        <ele>1493.06</ele>
        <time>2011-05-28T14:17:12Z</time>
      </trkpt>
      <trkpt lat="45.97312" lon="6.25605">
        <ele>1488.71</ele>
        <time>2011-05-28T14:17:30Z</time>
      </trkpt>
      <trkpt lat="45.97319" lon="6.25605">
        <ele>1489.2</ele>
        <time>2011-05-28T14:17:40.001Z</time>
      </trkpt>
      <trkpt lat="45.97314" lon="6.25616">
        <ele>1493.85</ele>
        <time>2011-05-28T14:17:51Z</time>
      </trkpt>
      <trkpt lat="45.97318" lon="6.2561">
        <ele>1512.43</ele>
        <time>2011-05-28T14:18:12Z</time>
      </trkpt>
      <trkpt lat="45.97323" lon="6.25624">
        <ele>1500.09</ele>
        <time>2011-05-28T14:18:40.001Z</time>
      </trkpt>
      <trkpt lat="45.97321" lon="6.25616">
        <ele>1499.24</ele>
        <time>2011-05-28T14:18:49.001Z</time>
      </trkpt>
      <trkpt lat="45.9733" lon="6.25632">
        <ele>1479.84</ele>
        <time>2011-05-28T14:19:37Z</time>
      </trkpt>
      <trkpt lat="45.97309" lon="6.25569">
        <ele>1533.12</ele>
        <time>2011-05-28T14:20:03Z</time>
      </trkpt>
      <trkpt lat="45.97313" lon="6.25597">
        <ele>1534.22</ele>
        <time>2011-05-28T14:20:24.998Z</time>
      </trkpt>
      <trkpt lat="45.97319" lon="6.25595">
        <ele>1528.41</ele>
        <time>2011-05-28T14:20:39.999Z</time>
      </trkpt>
      <trkpt lat="45.97318" lon="6.25602">
        <ele>1523.85</ele>
        <time>2011-05-28T14:21:04Z</time>
      </trkpt>
      <trkpt lat="45.9731" lon="6.25588">
        <ele>1519.68</ele>
        <time>2011-05-28T14:21:25Z</time>
      </trkpt>
      <trkpt lat="45.97315" lon="6.25614">
        <ele>1495.79</ele>
        <time>2011-05-28T14:21:34Z</time>
      </trkpt>
      <trkpt lat="45.97323" lon="6.25621">
        <ele>1488.7</ele>
        <time>2011-05-28T14:21:46.002Z</time>
      </trkpt>
      <trkpt lat="45.97324" lon="6.25601">
        <ele>1506.94</ele>
        <time>2011-05-28T14:21:54Z</time>
      </trkpt>
      <trkpt lat="45.97316" lon="6.25587">
        <ele>1527.67</ele>
        <time>2011-05-28T14:22:03Z</time>
      </trkpt>
      <trkpt lat="45.97323" lon="6.25626">
        <ele>1505.53</ele>
        <time>2011-05-28T14:22:45Z</time>
      </trkpt>
      <trkpt lat="45.9734" lon="6.25662">
        <ele>1463.19</ele>
        <time>2011-05-28T14:23:15Z</time>
      </trkpt>
      <trkpt lat="45.97328" lon="6.2564">
        <ele>1474.48</ele>
        <time>2011-05-28T14:23:31Z</time>
      </trkpt>
      <trkpt lat="45.97333" lon="6.25636">
        <ele>1489.42</ele>
        <time>2011-05-28T14:23:54.998Z</time>
      </trkpt>
      <trkpt lat="45.97318" lon="6.25618">
        <ele>1478.68</ele>
        <time>2011-05-28T14:24:52.002Z</time>
      </trkpt>
      <trkpt lat="45.9733" lon="6.25621">
        <ele>1482.05</ele>
        <time>2011-05-28T14:25:00Z</time>
      </trkpt>
      <trkpt lat="45.97323" lon="6.25606">
        <ele>1486.87</ele>
        <time>2011-05-28T14:25:13Z</time>
      </trkpt>
      <trkpt lat="45.97328" lon="6.25618">
        <ele>1486.84</ele>
        <time>2011-05-28T14:25:27Z</time>
      </trkpt>
      <trkpt lat="45.97294" lon="6.25574">
        <ele>1478.64</ele>
        <time>2011-05-28T14:26:09Z</time>
      </trkpt>
      <trkpt lat="45.97302" lon="6.25581">
        <ele>1471.43</ele>
        <time>2011-05-28T14:26:30Z</time>
      </trkpt>
      <trkpt lat="45.97302" lon="6.25574">
        <ele>1478.9</ele>
        <time>2011-05-28T14:26:42Z</time>
      </trkpt>
      <trkpt lat="45.97317" lon="6.25607">
        <ele>1492.87</ele>
        <time>2011-05-28T14:27:00Z</time>
      </trkpt>
      <trkpt lat="45.97323" lon="6.25599">
        <ele>1502.11</ele>
        <time>2011-05-28T14:27:16Z</time>
      </trkpt>
      <trkpt lat="45.97335" lon="6.25609">
        <ele>1495.2</ele>
        <time>2011-05-28T14:28:00.997Z</time>
      </trkpt>
      <trkpt lat="45.97313" lon="6.25608">
        <ele>1504.6</ele>
        <time>2011-05-28T14:28:12Z</time>
      </trkpt>
      <trkpt lat="45.97298" lon="6.25592">
        <ele>1500.82</ele>
        <time>2011-05-28T14:28:22.001Z</time>
      </trkpt>
      <trkpt lat="45.97306" lon="6.25611">
        <ele>1493.24</ele>
        <time>2011-05-28T14:28:43.001Z</time>
      </trkpt>
      <trkpt lat="45.97312" lon="6.25609">
        <ele>1478.91</ele>
        <time>2011-05-28T14:29:06Z</time>
      </trkpt>
      <trkpt lat="45.97303" lon="6.25595">
        <ele>1467.53</ele>
        <time>2011-05-28T14:29:18Z</time>
      </trkpt>
      <trkpt lat="45.97312" lon="6.25607">
        <ele>1474.28</ele>
        <time>2011-05-28T14:29:54.998Z</time>
      </trkpt>
      <trkpt lat="45.9733" lon="6.25604">
        <ele>1469.68</ele>
        <time>2011-05-28T14:30:09Z</time>
      </trkpt>
      <trkpt lat="45.97318" lon="6.25598">
        <ele>1469.12</ele>
        <time>2011-05-28T14:31:25Z</time>
      </trkpt>
      <trkpt lat="45.97312" lon="6.25627">
        <ele>1506.78</ele>
        <time>2011-05-28T14:56:06Z</time>
      </trkpt>
      <trkpt lat="45.97336" lon="6.25615">
        <ele>1461.3</ele>
        <time>2011-05-28T15:21:39Z</time>
      </trkpt>
      <trkpt lat="45.97326" lon="6.25613">
        <ele>1476.6</ele>
        <time>2011-05-28T15:21:46Z</time>
      </trkpt>
      <trkpt lat="45.97335" lon="6.25603">
        <ele>1515.79</ele>
        <time>2011-05-28T15:22:15Z</time>
      </trkpt>
      <trkpt lat="45.9733" lon="6.25615">
        <ele>1514.09</ele>
        <time>2011-05-28T15:22:28Z</time>
      </trkpt>
      <trkpt lat="45.97316" lon="6.25613">
        <ele>1484.9</ele>
        <time>2011-05-28T15:23:01.002Z</time>
      </trkpt>
      <trkpt lat="45.97312" lon="6.25631">
        <ele>1481.6</ele>
        <time>2011-05-28T15:23:18.998Z</time>
      </trkpt>
      <trkpt lat="45.9727" lon="6.25639">
        <ele>1491.3</ele>
        <time>2011-05-28T15:23:47Z</time>
      </trkpt>
      <trkpt lat="45.97257" lon="6.25688">
        <ele>1504.71</ele>
        <time>2011-05-28T15:24:10.003Z</time>
      </trkpt>
      <trkpt lat="45.97278" lon="6.25764">
        <ele>1473.61</ele>
        <time>2011-05-28T15:24:40Z</time>
      </trkpt>
      <trkpt lat="45.9728" lon="6.25828">
        <ele>1488.23</ele>
        <time>2011-05-28T15:25:13Z</time>
      </trkpt>
      <trkpt lat="45.97275" lon="6.25825">
        <ele>1504.19</ele>
        <time>2011-05-28T15:25:18Z</time>
      </trkpt>
      <trkpt lat="45.97298" lon="6.25846">
        <ele>1471.96</ele>
        <time>2011-05-28T15:25:36Z</time>
      </trkpt>
      <trkpt lat="45.97317" lon="6.25887">
        <ele>1445.55</ele>
        <time>2011-05-28T15:26:04.002Z</time>
      </trkpt>
      <trkpt lat="45.97332" lon="6.2589">
        <ele>1440.86</ele>
        <time>2011-05-28T15:26:10Z</time>
      </trkpt>
      <trkpt lat="45.97342" lon="6.25934">
        <ele>1470.76</ele>
        <time>2011-05-28T15:26:36.998Z</time>
      </trkpt>
      <trkpt lat="45.97353" lon="6.25938">
        <ele>1459.64</ele>
        <time>2011-05-28T15:26:45Z</time>
      </trkpt>
      <trkpt lat="45.97397" lon="6.2602">
        <ele>1419.84</ele>
        <time>2011-05-28T15:27:33Z</time>
      </trkpt>
      <trkpt lat="45.97404" lon="6.26022">
        <ele>1421.71</ele>
        <time>2011-05-28T15:27:39.997Z</time>
      </trkpt>
      <trkpt lat="45.97395" lon="6.26002">
        <ele>1409.18</ele>
        <time>2011-05-28T15:28:06.999Z</time>
      </trkpt>
      <trkpt lat="45.97362" lon="6.26003">
        <ele>1401.62</ele>
        <time>2011-05-28T15:28:33Z</time>
      </trkpt>
      <trkpt lat="45.97356" lon="6.25993">
        <ele>1397.4</ele>
        <time>2011-05-28T15:28:48Z</time>
      </trkpt>
      <trkpt lat="45.97307" lon="6.2599">
        <ele>1395.3</ele>
        <time>2011-05-28T15:29:33Z</time>
      </trkpt>
      <trkpt lat="45.97314" lon="6.26011">
        <ele>1386.26</ele>
        <time>2011-05-28T15:29:55.002Z</time>
      </trkpt>
      <trkpt lat="45.97309" lon="6.26037">
        <ele>1394.3</ele>
        <time>2011-05-28T15:30:07Z</time>
      </trkpt>
      <trkpt lat="45.97324" lon="6.2607">
        <ele>1398.05</ele>
        <time>2011-05-28T15:30:25Z</time>
      </trkpt>
      <trkpt lat="45.97356" lon="6.2609">
        <ele>1370.49</ele>
        <time>2011-05-28T15:30:42Z</time>
      </trkpt>
      <trkpt lat="45.97367" lon="6.26149">
        <ele>1365.94</ele>
        <time>2011-05-28T15:31:14.003Z</time>
      </trkpt>
      <trkpt lat="45.97383" lon="6.26152">
        <ele>1358.35</ele>
        <time>2011-05-28T15:31:31.003Z</time>
      </trkpt>
      <trkpt lat="45.97376" lon="6.2616">
        <ele>1355.5</ele>
        <time>2011-05-28T15:31:46Z</time>
      </trkpt>
      <trkpt lat="45.9737" lon="6.26132">
        <ele>1354.93</ele>
        <time>2011-05-28T15:32:09.999Z</time>
      </trkpt>
      <trkpt lat="45.97296" lon="6.26073">
        <ele>1342.34</ele>
        <time>2011-05-28T15:33:16Z</time>
      </trkpt>
      <trkpt lat="45.9728" lon="6.26075">
        <ele>1341.01</ele>
        <time>2011-05-28T15:33:24Z</time>
      </trkpt>
      <trkpt lat="45.97271" lon="6.26055">
        <ele>1337.48</ele>
        <time>2011-05-28T15:33:30Z</time>
      </trkpt>
      <trkpt lat="45.97237" lon="6.26051">
        <ele>1327.52</ele>
        <time>2011-05-28T15:33:54Z</time>
      </trkpt>
      <trkpt lat="45.97193" lon="6.2607">
        <ele>1321.72</ele>
        <time>2011-05-28T15:34:22Z</time>
      </trkpt>
      <trkpt lat="45.97204" lon="6.26084">
        <ele>1323.77</ele>
        <time>2011-05-28T15:34:37.997Z</time>
      </trkpt>
      <trkpt lat="45.97195" lon="6.26101">
        <ele>1310.8</ele>
        <time>2011-05-28T15:34:51Z</time>
      </trkpt>
      <trkpt lat="45.97191" lon="6.26133">
        <ele>1306.03</ele>
        <time>2011-05-28T15:35:12Z</time>
      </trkpt>
      <trkpt lat="45.97221" lon="6.26147">
        <ele>1294.13</ele>
        <time>2011-05-28T15:35:39Z</time>
      </trkpt>
      <trkpt lat="45.9722" lon="6.26157">
        <ele>1301.55</ele>
        <time>2011-05-28T15:35:42Z</time>
      </trkpt>
      <trkpt lat="45.9722" lon="6.26149">
        <ele>1306.5</ele>
        <time>2011-05-28T15:35:45Z</time>
      </trkpt>
      <trkpt lat="45.97215" lon="6.26154">
        <ele>1309.57</ele>
        <time>2011-05-28T15:35:51.998Z</time>
      </trkpt>
      <trkpt lat="45.97225" lon="6.26182">
        <ele>1312.62</ele>
        <time>2011-05-28T15:36:10.002Z</time>
      </trkpt>
      <trkpt lat="45.97255" lon="6.26185">
        <ele>1298.86</ele>
        <time>2011-05-28T15:36:27Z</time>
      </trkpt>
      <trkpt lat="45.97255" lon="6.26203">
        <ele>1299.33</ele>
        <time>2011-05-28T15:36:33Z</time>
      </trkpt>
      <trkpt lat="45.97243" lon="6.26196">
        <ele>1315.18</ele>
        <time>2011-05-28T15:36:48Z</time>
      </trkpt>
      <trkpt lat="45.97237" lon="6.26206">
        <ele>1319.16</ele>
        <time>2011-05-28T15:36:58.001Z</time>
      </trkpt>
      <trkpt lat="45.9725" lon="6.26257">
        <ele>1305.45</ele>
        <time>2011-05-28T15:37:18.999Z</time>
      </trkpt>
      <trkpt lat="45.97265" lon="6.2627">
        <ele>1289.15</ele>
        <time>2011-05-28T15:37:27Z</time>
      </trkpt>
      <trkpt lat="45.97302" lon="6.26336">
        <ele>1262.16</ele>
        <time>2011-05-28T15:38:06Z</time>
      </trkpt>
      <trkpt lat="45.97323" lon="6.26338">
        <ele>1255.18</ele>
        <time>2011-05-28T15:38:21Z</time>
      </trkpt>
      <trkpt lat="45.97344" lon="6.26367">
        <ele>1249.07</ele>
        <time>2011-05-28T15:38:43.001Z</time>
      </trkpt>
      <trkpt lat="45.97365" lon="6.26365">
        <ele>1244.07</ele>
        <time>2011-05-28T15:38:54Z</time>
      </trkpt>
      <trkpt lat="45.97389" lon="6.26392">
        <ele>1246.98</ele>
        <time>2011-05-28T15:39:52.999Z</time>
      </trkpt>
      <trkpt lat="45.97386" lon="6.26372">
        <ele>1248.24</ele>
        <time>2011-05-28T15:40:07Z</time>
      </trkpt>
      <trkpt lat="45.97385" lon="6.26382">
        <ele>1255.13</ele>
        <time>2011-05-28T15:40:31Z</time>
      </trkpt>
      <trkpt lat="45.97383" lon="6.26375">
        <ele>1259.22</ele>
        <time>2011-05-28T15:40:40Z</time>
      </trkpt>
      <trkpt lat="45.97384" lon="6.26387">
        <ele>1256.68</ele>
        <time>2011-05-28T15:40:54Z</time>
      </trkpt>
      <trkpt lat="45.97409" lon="6.2639">
        <ele>1251.55</ele>
        <time>2011-05-28T15:41:26Z</time>
      </trkpt>
      <trkpt lat="45.97404" lon="6.26381">
        <ele>1249.28</ele>
        <time>2011-05-28T15:41:45Z</time>
      </trkpt>
      <trkpt lat="45.974" lon="6.26407">
        <ele>1249.63</ele>
        <time>2011-05-28T15:42:28Z</time>
      </trkpt>
      <trkpt lat="45.97404" lon="6.26392">
        <ele>1248.12</ele>
        <time>2011-05-28T15:42:39.999Z</time>
      </trkpt>
      <trkpt lat="45.97421" lon="6.26383">
        <ele>1250.22</ele>
        <time>2011-05-28T15:43:24Z</time>
      </trkpt>
      <trkpt lat="45.97412" lon="6.26377">
        <ele>1248.43</ele>
        <time>2011-05-28T15:44:17Z</time>
      </trkpt>
      <trkpt lat="45.97409" lon="6.2639">
        <ele>1244.26</ele>
        <time>2011-05-28T15:44:37Z</time>
      </trkpt>
      <trkpt lat="45.97408" lon="6.26376">
        <ele>1237.53</ele>
        <time>2011-05-28T15:44:50Z</time>
      </trkpt>
      <trkpt lat="45.97421" lon="6.26383">
        <ele>1234.91</ele>
        <time>2011-05-28T15:45:55Z</time>
      </trkpt>
      <trkpt lat="45.974" lon="6.26389">
        <ele>1231.94</ele>
        <time>2011-05-28T15:46:27Z</time>
      </trkpt>
      <trkpt lat="45.97409" lon="6.26392">
        <ele>1241.84</ele>
        <time>2011-05-28T15:46:45Z</time>
      </trkpt>
      <trkpt lat="45.97392" lon="6.26396">
        <ele>1235.35</ele>
        <time>2011-05-28T15:47:06Z</time>
      </trkpt>
      <trkpt lat="45.97373" lon="6.26428">
        <ele>1245.72</ele>
        <time>2011-05-28T15:47:36.996Z</time>
      </trkpt>
      <trkpt lat="45.9738" lon="6.26395">
        <ele>1232.02</ele>
        <time>2011-05-28T15:47:45Z</time>
      </trkpt>
      <trkpt lat="45.97394" lon="6.26379">
        <ele>1226.8</ele>
        <time>2011-05-28T15:48:06Z</time>
      </trkpt>
      <trkpt lat="45.97384" lon="6.2639">
        <ele>1236.24</ele>
        <time>2011-05-28T15:48:19.998Z</time>
      </trkpt>
      <trkpt lat="45.97371" lon="6.26386">
        <ele>1232.2</ele>
        <time>2011-05-28T15:48:33Z</time>
      </trkpt>
      <trkpt lat="45.97345" lon="6.26397">
        <ele>1226.21</ele>
        <time>2011-05-28T15:48:46Z</time>
      </trkpt>
      <trkpt lat="45.97307" lon="6.26377">
        <ele>1258.34</ele>
        <time>2011-05-28T15:49:36Z</time>
      </trkpt>
      <trkpt lat="45.9729" lon="6.26404">
        <ele>1269.63</ele>
        <time>2011-05-28T15:49:48Z</time>
      </trkpt>
      <trkpt lat="45.97288" lon="6.26422">
        <ele>1228.15</ele>
        <time>2011-05-28T15:50:11.006Z</time>
      </trkpt>
      <trkpt lat="45.97301" lon="6.26428">
        <ele>1223.38</ele>
        <time>2011-05-28T15:50:27Z</time>
      </trkpt>
      <trkpt lat="45.97314" lon="6.26467">
        <ele>1212.28</ele>
        <time>2011-05-28T15:50:47Z</time>
      </trkpt>
      <trkpt lat="45.97348" lon="6.2647">
        <ele>1188.16</ele>
        <time>2011-05-28T15:51:00Z</time>
      </trkpt>
      <trkpt lat="45.97359" lon="6.2649">
        <ele>1181.21</ele>
        <time>2011-05-28T15:51:11.998Z</time>
      </trkpt>
      <trkpt lat="45.97371" lon="6.26487">
        <ele>1179.2</ele>
        <time>2011-05-28T15:51:18Z</time>
      </trkpt>
      <trkpt lat="45.97377" lon="6.26505">
        <ele>1177.64</ele>
        <time>2011-05-28T15:51:24Z</time>
      </trkpt>
      <trkpt lat="45.9739" lon="6.26504">
        <ele>1178.58</ele>
        <time>2011-05-28T15:51:36.001Z</time>
      </trkpt>
      <trkpt lat="45.97405" lon="6.26484">
        <ele>1174.4</ele>
        <time>2011-05-28T15:51:43Z</time>
      </trkpt>
      <trkpt lat="45.97409" lon="6.265">
        <ele>1179.45</ele>
        <time>2011-05-28T15:51:48Z</time>
      </trkpt>
      <trkpt lat="45.97434" lon="6.26513">
        <ele>1165.35</ele>
        <time>2011-05-28T15:52:06.003Z</time>
      </trkpt>
      <trkpt lat="45.97435" lon="6.26503">
        <ele>1164.61</ele>
        <time>2011-05-28T15:52:18Z</time>
      </trkpt>
      <trkpt lat="45.97411" lon="6.26505">
        <ele>1168.03</ele>
        <time>2011-05-28T15:52:39Z</time>
      </trkpt>
      <trkpt lat="45.9739" lon="6.26523">
        <ele>1179.31</ele>
        <time>2011-05-28T15:53:03Z</time>
      </trkpt>
      <trkpt lat="45.97378" lon="6.26514">
        <ele>1179.4</ele>
        <time>2011-05-28T15:53:18Z</time>
      </trkpt>
      <trkpt lat="45.97351" lon="6.2654">
        <ele>1210.66</ele>
        <time>2011-05-28T15:53:52Z</time>
      </trkpt>
      <trkpt lat="45.97331" lon="6.26528">
        <ele>1204.75</ele>
        <time>2011-05-28T15:54:06Z</time>
      </trkpt>
      <trkpt lat="45.9731" lon="6.26533">
        <ele>1202.22</ele>
        <time>2011-05-28T15:54:27Z</time>
      </trkpt>
      <trkpt lat="45.97303" lon="6.26549">
        <ele>1194.25</ele>
        <time>2011-05-28T15:54:45Z</time>
      </trkpt>
      <trkpt lat="45.97334" lon="6.26578">
        <ele>1168.85</ele>
        <time>2011-05-28T15:55:21Z</time>
      </trkpt>
      <trkpt lat="45.97363" lon="6.26582">
        <ele>1159.71</ele>
        <time>2011-05-28T15:55:46Z</time>
      </trkpt>
      <trkpt lat="45.97372" lon="6.26562">
        <ele>1146.25</ele>
        <time>2011-05-28T15:56:00Z</time>
      </trkpt>
      <trkpt lat="45.97347" lon="6.26554">
        <ele>1131.9</ele>
        <time>2011-05-28T15:56:06Z</time>
      </trkpt>
      <trkpt lat="45.97348" lon="6.26567">
        <ele>1126.34</ele>
        <time>2011-05-28T15:56:29Z</time>
      </trkpt>
      <trkpt lat="45.97338" lon="6.26573">
        <ele>1127.01</ele>
        <time>2011-05-28T15:56:39.002Z</time>
      </trkpt>
      <trkpt lat="45.97316" lon="6.26564">
        <ele>1132.62</ele>
        <time>2011-05-28T15:56:59.998Z</time>
      </trkpt>
      <trkpt lat="45.97295" lon="6.26577">
        <ele>1132.14</ele>
        <time>2011-05-28T15:57:09Z</time>
      </trkpt>
      <trkpt lat="45.97296" lon="6.26587">
        <ele>1134.67</ele>
        <time>2011-05-28T15:57:12Z</time>
      </trkpt>
      <trkpt lat="45.97308" lon="6.26591">
        <ele>1126.85</ele>
        <time>2011-05-28T15:57:18Z</time>
      </trkpt>
      <trkpt lat="45.97315" lon="6.26614">
        <ele>1127.61</ele>
        <time>2011-05-28T15:57:35Z</time>
      </trkpt>
      <trkpt lat="45.97357" lon="6.26635">
        <ele>1129.34</ele>
        <time>2011-05-28T15:58:00.001Z</time>
      </trkpt>
      <trkpt lat="45.97358" lon="6.26623">
        <ele>1125.87</ele>
        <time>2011-05-28T15:58:09Z</time>
      </trkpt>
      <trkpt lat="45.9736" lon="6.26646">
        <ele>1129.52</ele>
        <time>2011-05-28T15:58:21Z</time>
      </trkpt>
      <trkpt lat="45.97391" lon="6.26668">
        <ele>1126.15</ele>
        <time>2011-05-28T15:58:43Z</time>
      </trkpt>
      <trkpt lat="45.97396" lon="6.26659">
        <ele>1122.02</ele>
        <time>2011-05-28T15:58:51Z</time>
      </trkpt>
      <trkpt lat="45.97383" lon="6.26653">
        <ele>1088.02</ele>
        <time>2011-05-28T15:59:26.998Z</time>
      </trkpt>
      <trkpt lat="45.97387" lon="6.2666">
        <ele>1087.45</ele>
        <time>2011-05-28T16:00:26.001Z</time>
      </trkpt>
      <trkpt lat="45.97372" lon="6.26637">
        <ele>1084.59</ele>
        <time>2011-05-28T16:00:42Z</time>
      </trkpt>
      <trkpt lat="45.97343" lon="6.26642">
        <ele>1092.07</ele>
        <time>2011-05-28T16:01:09.003Z</time>
      </trkpt>
      <trkpt lat="45.97311" lon="6.26628">
        <ele>1088.84</ele>
        <time>2011-05-28T16:01:27Z</time>
      </trkpt>
      <trkpt lat="45.97284" lon="6.26631">
        <ele>1083.3</ele>
        <time>2011-05-28T16:01:39Z</time>
      </trkpt>
      <trkpt lat="45.97268" lon="6.26597">
        <ele>1085.57</ele>
        <time>2011-05-28T16:02:03Z</time>
      </trkpt>
      <trkpt lat="45.97254" lon="6.26615">
        <ele>1088.92</ele>
        <time>2011-05-28T16:02:17Z</time>
      </trkpt>
      <trkpt lat="45.97236" lon="6.26602">
        <ele>1081.26</ele>
        <time>2011-05-28T16:02:30Z</time>
      </trkpt>
      <trkpt lat="45.9721" lon="6.26619">
        <ele>1081.86</ele>
        <time>2011-05-28T16:02:42Z</time>
      </trkpt>
      <trkpt lat="45.97212" lon="6.26645">
        <ele>1083.33</ele>
        <time>2011-05-28T16:03:03Z</time>
      </trkpt>
      <trkpt lat="45.97201" lon="6.26652">
        <ele>1069.93</ele>
        <time>2011-05-28T16:03:20Z</time>
      </trkpt>
      <trkpt lat="45.97206" lon="6.26633">
        <ele>1067.33</ele>
        <time>2011-05-28T16:03:26Z</time>
      </trkpt>
      <trkpt lat="45.97216" lon="6.26636">
        <ele>1080.72</ele>
        <time>2011-05-28T16:03:34Z</time>
      </trkpt>
      <trkpt lat="45.97199" lon="6.26634">
        <ele>1069.38</ele>
        <time>2011-05-28T16:03:57Z</time>
      </trkpt>
      <trkpt lat="45.9721" lon="6.26639">
        <ele>1075.87</ele>
        <time>2011-05-28T16:04:04Z</time>
      </trkpt>
      <trkpt lat="45.97201" lon="6.26646">
        <ele>1066.31</ele>
        <time>2011-05-28T16:04:19Z</time>
      </trkpt>
      <trkpt lat="45.97206" lon="6.26651">
        <ele>1068.16</ele>
        <time>2011-05-28T16:04:22Z</time>
      </trkpt>
      <trkpt lat="45.97197" lon="6.26631">
        <ele>1063.83</ele>
        <time>2011-05-28T16:04:39Z</time>
      </trkpt>
      <trkpt lat="45.97188" lon="6.2663">
        <ele>1056.8</ele>
        <time>2011-05-28T16:04:42Z</time>
      </trkpt>
      <trkpt lat="45.97189" lon="6.26624">
        <ele>1059.65</ele>
        <time>2011-05-28T16:04:57Z</time>
      </trkpt>
      <trkpt lat="45.97183" lon="6.26623">
        <ele>1058.15</ele>
        <time>2011-05-28T16:05:07Z</time>
      </trkpt>
      <trkpt lat="45.97162" lon="6.26651">
        <ele>1077.36</ele>
        <time>2011-05-28T16:05:45Z</time>
      </trkpt>
      <trkpt lat="45.97174" lon="6.26645">
        <ele>1080.49</ele>
        <time>2011-05-28T16:06:04Z</time>
      </trkpt>
      <trkpt lat="45.97188" lon="6.26653">
        <ele>1082.09</ele>
        <time>2011-05-28T16:06:16Z</time>
      </trkpt>
      <trkpt lat="45.97181" lon="6.26624">
        <ele>1076.28</ele>
        <time>2011-05-28T16:06:41Z</time>
      </trkpt>
      <trkpt lat="45.9712" lon="6.26576">
        <ele>1064.02</ele>
        <time>2011-05-28T16:07:08Z</time>
      </trkpt>
      <trkpt lat="45.97141" lon="6.26586">
        <ele>1054.86</ele>
        <time>2011-05-28T16:07:39Z</time>
      </trkpt>
      <trkpt lat="45.97084" lon="6.26554">
        <ele>1084.02</ele>
        <time>2011-05-28T16:08:18Z</time>
      </trkpt>
      <trkpt lat="45.9711" lon="6.2658">
        <ele>1120.81</ele>
        <time>2011-05-28T16:08:31Z</time>
      </trkpt>
      <trkpt lat="45.97142" lon="6.26585">
        <ele>1145.6</ele>
        <time>2011-05-28T16:08:42Z</time>
      </trkpt>
      <trkpt lat="45.97129" lon="6.26596">
        <ele>1119.41</ele>
        <time>2011-05-28T16:09:06Z</time>
      </trkpt>
      <trkpt lat="45.97129" lon="6.26621">
        <ele>1105.25</ele>
        <time>2011-05-28T16:09:18Z</time>
      </trkpt>
      <trkpt lat="45.9712" lon="6.2664">
        <ele>1084.46</ele>
        <time>2011-05-28T16:09:30Z</time>
      </trkpt>
      <trkpt lat="45.9713" lon="6.26698">
        <ele>1082.29</ele>
        <time>2011-05-28T16:09:51Z</time>
      </trkpt>
      <trkpt lat="45.97127" lon="6.26704">
        <ele>1074.68</ele>
        <time>2011-05-28T16:09:57Z</time>
      </trkpt>
      <trkpt lat="45.97139" lon="6.26731">
        <ele>1084.14</ele>
        <time>2011-05-28T16:10:09Z</time>
      </trkpt>
      <trkpt lat="45.9712" lon="6.26739">
        <ele>1058.16</ele>
        <time>2011-05-28T16:11:08Z</time>
      </trkpt>
      <trkpt lat="45.97135" lon="6.26734">
        <ele>1073.36</ele>
        <time>2011-05-28T16:12:15Z</time>
      </trkpt>
      <trkpt lat="45.97119" lon="6.26742">
        <ele>1043.6</ele>
        <time>2011-05-28T16:12:27Z</time>
      </trkpt>
      <trkpt lat="45.97117" lon="6.26786">
        <ele>1038.73</ele>
        <time>2011-05-28T16:12:57Z</time>
      </trkpt>
      <trkpt lat="45.97105" lon="6.26782">
        <ele>1029.11</ele>
        <time>2011-05-28T16:13:03Z</time>
      </trkpt>
      <trkpt lat="45.9711" lon="6.26832">
        <ele>1017.16</ele>
        <time>2011-05-28T16:13:51Z</time>
      </trkpt>
      <trkpt lat="45.97104" lon="6.26849">
        <ele>1015.09</ele>
        <time>2011-05-28T16:14:03.001Z</time>
      </trkpt>
      <trkpt lat="45.97085" lon="6.26861">
        <ele>1003.85</ele>
        <time>2011-05-28T16:14:19Z</time>
      </trkpt>
      <trkpt lat="45.97085" lon="6.26879">
        <ele>1013.21</ele>
        <time>2011-05-28T16:14:30Z</time>
      </trkpt>
      <trkpt lat="45.97092" lon="6.26887">
        <ele>1025.2</ele>
        <time>2011-05-28T16:14:33Z</time>
      </trkpt>
      <trkpt lat="45.97079" lon="6.26881">
        <ele>1010.66</ele>
        <time>2011-05-28T16:14:45Z</time>
      </trkpt>
      <trkpt lat="45.97139" lon="6.27023">
        <ele>990.52</ele>
        <time>2011-05-28T16:16:34Z</time>
      </trkpt>
      <trkpt lat="45.97406" lon="6.27765">
        <ele>825.75</ele>
        <time>2011-05-28T16:31:25.001Z</time>
      </trkpt>
      <trkpt lat="45.97453" lon="6.27779">
        <ele>794.4</ele>
        <time>2011-05-28T16:32:11.002Z</time>
      </trkpt>
      <trkpt lat="45.97459" lon="6.27771">
        <ele>800.76</ele>
        <time>2011-05-28T16:32:48.002Z</time>
      </trkpt>
      <trkpt lat="45.97513" lon="6.27791">
        <ele>783.19</ele>
        <time>2011-05-28T16:33:57Z</time>
      </trkpt>
      <trkpt lat="45.97568" lon="6.27833">
        <ele>748.4</ele>
        <time>2011-05-28T16:34:27.001Z</time>
      </trkpt>
      <trkpt lat="45.97576" lon="6.27828">
        <ele>749.5</ele>
        <time>2011-05-28T16:34:36Z</time>
      </trkpt>
      <trkpt lat="45.97572" lon="6.27821">
        <ele>753.02</ele>
        <time>2011-05-28T16:34:39.001Z</time>
      </trkpt>
      <trkpt lat="45.97619" lon="6.27816">
        <ele>743.25</ele>
        <time>2011-05-28T16:35:06Z</time>
      </trkpt>
      <trkpt lat="45.97622" lon="6.27808">
        <ele>743.42</ele>
        <time>2011-05-28T16:35:11.997Z</time>
      </trkpt>
      <trkpt lat="45.97635" lon="6.2781">
        <ele>740.72</ele>
        <time>2011-05-28T16:35:18Z</time>
      </trkpt>
      <trkpt lat="45.97641" lon="6.27783">
        <ele>729.91</ele>
        <time>2011-05-28T16:35:30Z</time>
      </trkpt>
      <trkpt lat="45.97648" lon="6.2778">
        <ele>726.19</ele>
        <time>2011-05-28T16:35:32.998Z</time>
      </trkpt>
      <trkpt lat="45.97646" lon="6.27768">
        <ele>729.83</ele>
        <time>2011-05-28T16:35:35.998Z</time>
      </trkpt>
      <trkpt lat="45.97673" lon="6.27752">
        <ele>739.64</ele>
        <time>2011-05-28T16:35:48Z</time>
      </trkpt>
      <trkpt lat="45.97674" lon="6.27742">
        <ele>757.35</ele>
        <time>2011-05-28T16:35:54Z</time>
      </trkpt>
      <trkpt lat="45.9771" lon="6.27765">
        <ele>779.79</ele>
        <time>2011-05-28T16:36:21.002Z</time>
      </trkpt>
      <trkpt lat="45.97715" lon="6.27753">
        <ele>772.59</ele>
        <time>2011-05-28T16:36:30Z</time>
      </trkpt>
      <trkpt lat="45.97708" lon="6.27737">
        <ele>757.83</ele>
        <time>2011-05-28T16:36:47Z</time>
      </trkpt>
      <trkpt lat="45.97734" lon="6.27732">
        <ele>755.58</ele>
        <time>2011-05-28T16:36:57.003Z</time>
      </trkpt>
      <trkpt lat="45.97763" lon="6.27712">
        <ele>749.68</ele>
        <time>2011-05-28T16:37:11.998Z</time>
      </trkpt>
      <trkpt lat="45.97765" lon="6.27695">
        <ele>749.02</ele>
        <time>2011-05-28T16:37:18Z</time>
      </trkpt>
      <trkpt lat="45.97793" lon="6.27688">
        <ele>757.3</ele>
        <time>2011-05-28T16:37:30Z</time>
      </trkpt>
      <trkpt lat="45.97831" lon="6.2762">
        <ele>736.25</ele>
        <time>2011-05-28T16:38:00Z</time>
      </trkpt>
      <trkpt lat="45.97881" lon="6.2759">
        <ele>729.49</ele>
        <time>2011-05-28T16:38:26.998Z</time>
      </trkpt>
      <trkpt lat="45.97901" lon="6.27588">
        <ele>739.23</ele>
        <time>2011-05-28T16:38:36Z</time>
      </trkpt>
      <trkpt lat="45.97901" lon="6.27581">
        <ele>736.24</ele>
        <time>2011-05-28T16:38:39.002Z</time>
      </trkpt>
      <trkpt lat="45.97917" lon="6.27572">
        <ele>733.8</ele>
        <time>2011-05-28T16:38:48.002Z</time>
      </trkpt>
      <trkpt lat="45.97939" lon="6.27529">
        <ele>724.28</ele>
        <time>2011-05-28T16:39:05.994Z</time>
      </trkpt>
      <trkpt lat="45.97937" lon="6.27521">
        <ele>720.28</ele>
        <time>2011-05-28T16:39:09Z</time>
      </trkpt>
      <trkpt lat="45.97994" lon="6.27503">
        <ele>715.89</ele>
        <time>2011-05-28T16:39:30Z</time>
      </trkpt>
      <trkpt lat="45.98013" lon="6.27481">
        <ele>710.45</ele>
        <time>2011-05-28T16:39:39.001Z</time>
      </trkpt>
      <trkpt lat="45.98017" lon="6.27443">
        <ele>703.23</ele>
        <time>2011-05-28T16:39:47.999Z</time>
      </trkpt>
      <trkpt lat="45.98038" lon="6.27412">
        <ele>701.61</ele>
        <time>2011-05-28T16:40:02.998Z</time>
      </trkpt>
      <trkpt lat="45.98036" lon="6.27393">
        <ele>701.03</ele>
        <time>2011-05-28T16:40:09Z</time>
      </trkpt>
      <trkpt lat="45.98045" lon="6.27369">
        <ele>701.9</ele>
        <time>2011-05-28T16:40:18.001Z</time>
      </trkpt>
      <trkpt lat="45.98069" lon="6.2736">
        <ele>698.62</ele>
        <time>2011-05-28T16:40:27.002Z</time>
      </trkpt>
      <trkpt lat="45.98076" lon="6.27323">
        <ele>695.19</ele>
        <time>2011-05-28T16:40:39Z</time>
      </trkpt>
      <trkpt lat="45.98112" lon="6.27331">
        <ele>695.55</ele>
        <time>2011-05-28T16:40:51Z</time>
      </trkpt>
      <trkpt lat="45.98146" lon="6.27324">
        <ele>691.16</ele>
        <time>2011-05-28T16:41:06Z</time>
      </trkpt>
      <trkpt lat="45.98187" lon="6.27256">
        <ele>689.92</ele>
        <time>2011-05-28T16:41:39Z</time>
      </trkpt>
      <trkpt lat="45.98213" lon="6.27157">
        <ele>685.25</ele>
        <time>2011-05-28T16:42:12Z</time>
      </trkpt>
      <trkpt lat="45.98236" lon="6.27121">
        <ele>689.12</ele>
        <time>2011-05-28T16:42:21Z</time>
      </trkpt>
      <trkpt lat="45.9829" lon="6.27107">
        <ele>709.11</ele>
        <time>2011-05-28T16:42:45.003Z</time>
      </trkpt>
      <trkpt lat="45.98306" lon="6.27083">
        <ele>694.38</ele>
        <time>2011-05-28T16:42:53.997Z</time>
      </trkpt>
      <trkpt lat="45.98311" lon="6.27058">
        <ele>686.52</ele>
        <time>2011-05-28T16:42:59Z</time>
      </trkpt>
      <trkpt lat="45.98341" lon="6.27036">
        <ele>685.72</ele>
        <time>2011-05-28T16:43:12Z</time>
      </trkpt>
      <trkpt lat="45.98374" lon="6.2704">
        <ele>708.72</ele>
        <time>2011-05-28T16:43:27.002Z</time>
      </trkpt>
      <trkpt lat="45.98439" lon="6.26984">
        <ele>719.26</ele>
        <time>2011-05-28T16:44:03Z</time>
      </trkpt>
      <trkpt lat="45.98453" lon="6.26983">
        <ele>722.04</ele>
        <time>2011-05-28T16:44:09.003Z</time>
      </trkpt>
      <trkpt lat="45.98483" lon="6.26938">
        <ele>729.89</ele>
        <time>2011-05-28T16:44:33.002Z</time>
      </trkpt>
      <trkpt lat="45.98499" lon="6.26853">
        <ele>688.26</ele>
        <time>2011-05-28T16:44:51.001Z</time>
      </trkpt>
      <trkpt lat="45.98518" lon="6.26847">
        <ele>687.89</ele>
        <time>2011-05-28T16:44:57Z</time>
      </trkpt>
      <trkpt lat="45.98525" lon="6.26789">
        <ele>672.85</ele>
        <time>2011-05-28T16:45:09.001Z</time>
      </trkpt>
      <trkpt lat="45.9856" lon="6.26756">
        <ele>675.72</ele>
        <time>2011-05-28T16:45:30Z</time>
      </trkpt>
      <trkpt lat="45.98563" lon="6.2673">
        <ele>679.69</ele>
        <time>2011-05-28T16:45:39.001Z</time>
      </trkpt>
      <trkpt lat="45.98602" lon="6.26704">
        <ele>690.62</ele>
        <time>2011-05-28T16:45:59.999Z</time>
      </trkpt>
      <trkpt lat="45.98619" lon="6.26668">
        <ele>694.66</ele>
        <time>2011-05-28T16:46:18Z</time>
      </trkpt>
      <trkpt lat="45.98634" lon="6.26659">
        <ele>700.94</ele>
        <time>2011-05-28T16:46:26.999Z</time>
      </trkpt>
      <trkpt lat="45.98639" lon="6.26625">
        <ele>698.54</ele>
        <time>2011-05-28T16:46:39Z</time>
      </trkpt>
      <trkpt lat="45.98659" lon="6.26595">
        <ele>698.59</ele>
        <time>2011-05-28T16:46:53.998Z</time>
      </trkpt>
      <trkpt lat="45.98666" lon="6.26559">
        <ele>692.51</ele>
        <time>2011-05-28T16:47:06.001Z</time>
      </trkpt>
      <trkpt lat="45.98676" lon="6.26555">
        <ele>700.64</ele>
        <time>2011-05-28T16:47:11.998Z</time>
      </trkpt>
      <trkpt lat="45.98684" lon="6.26522">
        <ele>694.2</ele>
        <time>2011-05-28T16:47:24.002Z</time>
      </trkpt>
      <trkpt lat="45.98697" lon="6.26527">
        <ele>700.77</ele>
        <time>2011-05-28T16:47:27Z</time>
      </trkpt>
      <trkpt lat="45.98715" lon="6.26515">
        <ele>699.71</ele>
        <time>2011-05-28T16:47:35.999Z</time>
      </trkpt>
      <trkpt lat="45.98727" lon="6.2648">
        <ele>686.89</ele>
        <time>2011-05-28T16:47:45Z</time>
      </trkpt>
      <trkpt lat="45.98746" lon="6.26466">
        <ele>669.96</ele>
        <time>2011-05-28T16:47:53.999Z</time>
      </trkpt>
      <trkpt lat="45.98769" lon="6.26429">
        <ele>654.06</ele>
        <time>2011-05-28T16:48:09.002Z</time>
      </trkpt>
      <trkpt lat="45.988" lon="6.26419">
        <ele>647.78</ele>
        <time>2011-05-28T16:48:24.003Z</time>
      </trkpt>
      <trkpt lat="45.98799" lon="6.26386">
        <ele>649.24</ele>
        <time>2011-05-28T16:48:33Z</time>
      </trkpt>
      <trkpt lat="45.98787" lon="6.26378">
        <ele>670.3</ele>
        <time>2011-05-28T16:48:59Z</time>
      </trkpt>
      <trkpt lat="45.98802" lon="6.26344">
        <ele>664.32</ele>
        <time>2011-05-28T16:49:03Z</time>
      </trkpt>
    </trkseg>
  </trk>
</gpx>